sensor_id;sensor_type;location;lat;lon;timestamp;P1;durP1;ratioP1;P2;durP2;ratioP2
12577;SDS011;6354;51.026;8.968;2022-08-19T00:00:38;15.27;;;13.60;;
12577;SDS011;6354;51.026;8.968;2022-08-19T00:03:06;18.40;;;14.02;;
12577;SDS011;6354;51.026;8.968;2022-08-19T00:05:34;18.67;;;14.13;;
12577;SDS011;6354;51.026;8.968;2022-08-19T00:08:04;16.67;;;14.85;;
12577;SDS011;6354;51.026;8.968;2022-08-19T00:10:32;19.05;;;14.88;;
12577;SDS011;6354;51.026;8.968;2022-08-19T00:13:00;15.30;;;13.60;;
12577;SDS011;6354;51.026;8.968;2022-08-19T00:15:28;15.50;;;13.27;;
12577;SDS011;6354;51.026;8.968;2022-08-19T00:17:56;16.10;;;13.73;;
12577;SDS011;6354;51.026;8.968;2022-08-19T00:20:24;17.05;;;13.73;;
12577;SDS011;6354;51.026;8.968;2022-08-19T00:22:52;18.30;;;14.07;;
12577;SDS011;6354;51.026;8.968;2022-08-19T00:25:22;16.75;;;13.85;;
12577;SDS011;6354;51.026;8.968;2022-08-19T00:27:55;17.33;;;13.32;;
12577;SDS011;6354;51.026;8.968;2022-08-19T00:30:23;15.20;;;13.27;;
12577;SDS011;6354;51.026;8.968;2022-08-19T00:32:52;15.70;;;13.52;;
12577;SDS011;6354;51.026;8.968;2022-08-19T00:35:20;15.73;;;13.50;;
12577;SDS011;6354;51.026;8.968;2022-08-19T00:37:49;14.65;;;12.93;;
12577;SDS011;6354;51.026;8.968;2022-08-19T00:40:17;13.80;;;12.38;;
12577;SDS011;6354;51.026;8.968;2022-08-19T00:42:47;15.98;;;13.32;;
12577;SDS011;6354;51.026;8.968;2022-08-19T00:45:16;16.60;;;13.43;;
12577;SDS011;6354;51.026;8.968;2022-08-19T00:47:46;15.40;;;13.35;;
12577;SDS011;6354;51.026;8.968;2022-08-19T00:50:15;15.48;;;13.88;;
12577;SDS011;6354;51.026;8.968;2022-08-19T00:52:47;18.50;;;13.88;;
12577;SDS011;6354;51.026;8.968;2022-08-19T00:55:18;16.85;;;13.73;;
12577;SDS011;6354;51.026;8.968;2022-08-19T00:57:51;15.65;;;14.05;;
12577;SDS011;6354;51.026;8.968;2022-08-19T01:00:24;15.70;;;13.80;;
12577;SDS011;6354;51.026;8.968;2022-08-19T01:02:53;15.52;;;13.75;;
12577;SDS011;6354;51.026;8.968;2022-08-19T01:05:23;18.25;;;13.38;;
12577;SDS011;6354;51.026;8.968;2022-08-19T01:07:55;16.77;;;12.88;;
12577;SDS011;6354;51.026;8.968;2022-08-19T01:10:25;16.50;;;14.20;;
12577;SDS011;6354;51.026;8.968;2022-08-19T01:13:02;17.42;;;14.48;;
12577;SDS011;6354;51.026;8.968;2022-08-19T01:15:33;19.05;;;14.00;;
12577;SDS011;6354;51.026;8.968;2022-08-19T01:18:08;19.60;;;15.65;;
12577;SDS011;6354;51.026;8.968;2022-08-19T01:20:39;17.77;;;14.88;;
12577;SDS011;6354;51.026;8.968;2022-08-19T01:23:09;17.83;;;15.85;;
12577;SDS011;6354;51.026;8.968;2022-08-19T01:25:39;18.08;;;16.17;;
12577;SDS011;6354;51.026;8.968;2022-08-19T01:28:14;17.17;;;14.85;;
12577;SDS011;6354;51.026;8.968;2022-08-19T01:30:59;18.02;;;15.82;;
12577;SDS011;6354;51.026;8.968;2022-08-19T01:33:33;21.67;;;15.98;;
12577;SDS011;6354;51.026;8.968;2022-08-19T01:36:08;17.63;;;15.80;;
12577;SDS011;6354;51.026;8.968;2022-08-19T01:38:41;20.65;;;16.15;;
12577;SDS011;6354;51.026;8.968;2022-08-19T01:41:11;18.58;;;15.05;;
12577;SDS011;6354;51.026;8.968;2022-08-19T01:43:39;20.38;;;16.05;;
12577;SDS011;6354;51.026;8.968;2022-08-19T01:46:28;22.10;;;16.25;;
12577;SDS011;6354;51.026;8.968;2022-08-19T01:48:56;21.50;;;16.15;;
12577;SDS011;6354;51.026;8.968;2022-08-19T01:51:24;21.67;;;17.13;;
12577;SDS011;6354;51.026;8.968;2022-08-19T01:53:55;16.92;;;15.18;;
12577;SDS011;6354;51.026;8.968;2022-08-19T01:56:24;21.00;;;18.80;;
12577;SDS011;6354;51.026;8.968;2022-08-19T01:58:53;19.75;;;17.65;;
12577;SDS011;6354;51.026;8.968;2022-08-19T02:01:23;21.73;;;17.80;;
12577;SDS011;6354;51.026;8.968;2022-08-19T02:03:56;19.40;;;15.57;;
12577;SDS011;6354;51.026;8.968;2022-08-19T02:06:24;19.45;;;17.30;;
12577;SDS011;6354;51.026;8.968;2022-08-19T02:08:52;21.50;;;18.33;;
12577;SDS011;6354;51.026;8.968;2022-08-19T02:11:24;20.38;;;17.90;;
12577;SDS011;6354;51.026;8.968;2022-08-19T02:13:54;20.90;;;17.92;;
12577;SDS011;6354;51.026;8.968;2022-08-19T02:16:22;22.55;;;17.60;;
12577;SDS011;6354;51.026;8.968;2022-08-19T02:18:52;20.38;;;18.02;;
12577;SDS011;6354;51.026;8.968;2022-08-19T02:21:21;19.65;;;17.52;;
12577;SDS011;6354;51.026;8.968;2022-08-19T02:23:51;21.25;;;17.80;;
12577;SDS011;6354;51.026;8.968;2022-08-19T02:26:21;19.27;;;17.27;;
12577;SDS011;6354;51.026;8.968;2022-08-19T02:28:49;22.30;;;17.73;;
12577;SDS011;6354;51.026;8.968;2022-08-19T02:31:18;18.45;;;16.48;;
12577;SDS011;6354;51.026;8.968;2022-08-19T02:33:51;20.95;;;16.75;;
12577;SDS011;6354;51.026;8.968;2022-08-19T02:36:22;21.10;;;16.92;;
12577;SDS011;6354;51.026;8.968;2022-08-19T02:38:51;20.02;;;17.50;;
12577;SDS011;6354;51.026;8.968;2022-08-19T02:41:23;19.90;;;17.85;;
12577;SDS011;6354;51.026;8.968;2022-08-19T02:43:52;19.70;;;16.80;;
12577;SDS011;6354;51.026;8.968;2022-08-19T02:46:41;20.00;;;17.08;;
12577;SDS011;6354;51.026;8.968;2022-08-19T02:49:10;22.30;;;16.77;;
12577;SDS011;6354;51.026;8.968;2022-08-19T02:51:43;21.42;;;16.90;;
12577;SDS011;6354;51.026;8.968;2022-08-19T02:54:12;20.75;;;17.70;;
12577;SDS011;6354;51.026;8.968;2022-08-19T02:56:43;21.50;;;17.20;;
12577;SDS011;6354;51.026;8.968;2022-08-19T02:59:11;19.00;;;16.58;;
12577;SDS011;6354;51.026;8.968;2022-08-19T03:01:40;21.05;;;16.20;;
12577;SDS011;6354;51.026;8.968;2022-08-19T03:04:10;21.80;;;17.40;;
12577;SDS011;6354;51.026;8.968;2022-08-19T03:06:40;17.70;;;15.77;;
12577;SDS011;6354;51.026;8.968;2022-08-19T03:09:09;19.60;;;16.13;;
12577;SDS011;6354;51.026;8.968;2022-08-19T03:11:38;19.17;;;16.60;;
12577;SDS011;6354;51.026;8.968;2022-08-19T03:14:07;23.02;;;16.65;;
12577;SDS011;6354;51.026;8.968;2022-08-19T03:16:40;17.33;;;15.30;;
12577;SDS011;6354;51.026;8.968;2022-08-19T03:19:09;18.13;;;16.00;;
12577;SDS011;6354;51.026;8.968;2022-08-19T03:21:37;19.35;;;16.70;;
12577;SDS011;6354;51.026;8.968;2022-08-19T03:24:07;19.75;;;17.45;;
12577;SDS011;6354;51.026;8.968;2022-08-19T03:26:38;18.77;;;16.52;;
12577;SDS011;6354;51.026;8.968;2022-08-19T03:29:08;20.20;;;16.73;;
12577;SDS011;6354;51.026;8.968;2022-08-19T03:31:39;17.88;;;16.08;;
12577;SDS011;6354;51.026;8.968;2022-08-19T03:34:19;20.95;;;17.60;;
12577;SDS011;6354;51.026;8.968;2022-08-19T03:36:48;21.90;;;17.25;;
12577;SDS011;6354;51.026;8.968;2022-08-19T03:39:16;20.83;;;18.50;;
12577;SDS011;6354;51.026;8.968;2022-08-19T03:41:46;20.55;;;17.70;;
12577;SDS011;6354;51.026;8.968;2022-08-19T03:44:37;18.73;;;16.63;;
12577;SDS011;6354;51.026;8.968;2022-08-19T03:47:05;17.60;;;15.68;;
12577;SDS011;6354;51.026;8.968;2022-08-19T03:49:33;17.77;;;14.50;;
12577;SDS011;6354;51.026;8.968;2022-08-19T03:52:03;20.58;;;15.38;;
12577;SDS011;6354;51.026;8.968;2022-08-19T03:54:33;17.27;;;15.20;;
12577;SDS011;6354;51.026;8.968;2022-08-19T03:57:02;18.08;;;15.05;;
12577;SDS011;6354;51.026;8.968;2022-08-19T03:59:31;17.65;;;15.82;;
12577;SDS011;6354;51.026;8.968;2022-08-19T04:02:05;20.38;;;17.35;;
12577;SDS011;6354;51.026;8.968;2022-08-19T04:04:35;22.52;;;16.85;;
12577;SDS011;6354;51.026;8.968;2022-08-19T04:07:04;21.10;;;16.77;;
12577;SDS011;6354;51.026;8.968;2022-08-19T04:09:33;21.42;;;16.90;;
12577;SDS011;6354;51.026;8.968;2022-08-19T04:12:03;18.77;;;16.77;;
12577;SDS011;6354;51.026;8.968;2022-08-19T04:14:33;19.58;;;15.68;;
12577;SDS011;6354;51.026;8.968;2022-08-19T04:17:03;18.70;;;14.57;;
12577;SDS011;6354;51.026;8.968;2022-08-19T04:19:32;17.15;;;13.95;;
12577;SDS011;6354;51.026;8.968;2022-08-19T04:22:01;16.58;;;13.57;;
12577;SDS011;6354;51.026;8.968;2022-08-19T04:24:30;18.00;;;12.80;;
12577;SDS011;6354;51.026;8.968;2022-08-19T04:26:59;16.98;;;12.88;;
12577;SDS011;6354;51.026;8.968;2022-08-19T04:29:28;14.88;;;12.52;;
12577;SDS011;6354;51.026;8.968;2022-08-19T04:31:57;15.80;;;12.82;;
12577;SDS011;6354;51.026;8.968;2022-08-19T04:34:36;16.75;;;12.57;;
12577;SDS011;6354;51.026;8.968;2022-08-19T04:37:25;14.38;;;12.48;;
12577;SDS011;6354;51.026;8.968;2022-08-19T04:40:00;13.68;;;11.63;;
12577;SDS011;6354;51.026;8.968;2022-08-19T04:42:45;11.93;;;10.45;;
12577;SDS011;6354;51.026;8.968;2022-08-19T04:45:14;12.23;;;10.82;;
12577;SDS011;6354;51.026;8.968;2022-08-19T04:47:43;15.57;;;11.32;;
12577;SDS011;6354;51.026;8.968;2022-08-19T04:50:25;14.10;;;10.75;;
12577;SDS011;6354;51.026;8.968;2022-08-19T04:52:54;12.45;;;10.77;;
12577;SDS011;6354;51.026;8.968;2022-08-19T04:55:23;15.60;;;11.60;;
12577;SDS011;6354;51.026;8.968;2022-08-19T04:57:52;14.55;;;11.15;;
12577;SDS011;6354;51.026;8.968;2022-08-19T05:00:21;16.05;;;11.50;;
12577;SDS011;6354;51.026;8.968;2022-08-19T05:02:49;15.65;;;13.13;;
12577;SDS011;6354;51.026;8.968;2022-08-19T05:05:17;16.63;;;11.68;;
12577;SDS011;6354;51.026;8.968;2022-08-19T05:07:47;14.20;;;12.50;;
12577;SDS011;6354;51.026;8.968;2022-08-19T05:10:15;14.63;;;11.55;;
12577;SDS011;6354;51.026;8.968;2022-08-19T05:12:43;14.98;;;11.75;;
12577;SDS011;6354;51.026;8.968;2022-08-19T05:15:11;13.50;;;11.50;;
12577;SDS011;6354;51.026;8.968;2022-08-19T05:17:40;13.50;;;11.40;;
12577;SDS011;6354;51.026;8.968;2022-08-19T05:20:28;13.55;;;10.63;;
12577;SDS011;6354;51.026;8.968;2022-08-19T05:23:15;12.65;;;10.40;;
12577;SDS011;6354;51.026;8.968;2022-08-19T05:25:47;15.30;;;11.25;;
12577;SDS011;6354;51.026;8.968;2022-08-19T05:28:16;12.70;;;10.18;;
12577;SDS011;6354;51.026;8.968;2022-08-19T05:30:44;13.35;;;9.68;;
12577;SDS011;6354;51.026;8.968;2022-08-19T05:33:14;11.60;;;9.45;;
12577;SDS011;6354;51.026;8.968;2022-08-19T05:35:42;12.18;;;9.90;;
12577;SDS011;6354;51.026;8.968;2022-08-19T05:38:10;12.85;;;10.18;;
12577;SDS011;6354;51.026;8.968;2022-08-19T05:40:40;10.18;;;9.05;;
12577;SDS011;6354;51.026;8.968;2022-08-19T05:43:09;11.23;;;9.75;;
12577;SDS011;6354;51.026;8.968;2022-08-19T05:45:40;13.55;;;8.77;;
12577;SDS011;6354;51.026;8.968;2022-08-19T05:48:09;10.30;;;8.38;;
12577;SDS011;6354;51.026;8.968;2022-08-19T05:50:38;10.20;;;9.20;;
12577;SDS011;6354;51.026;8.968;2022-08-19T05:53:07;9.90;;;8.43;;
12577;SDS011;6354;51.026;8.968;2022-08-19T05:55:35;9.40;;;8.38;;
12577;SDS011;6354;51.026;8.968;2022-08-19T05:58:06;11.40;;;8.23;;
12577;SDS011;6354;51.026;8.968;2022-08-19T06:00:35;11.73;;;9.50;;
12577;SDS011;6354;51.026;8.968;2022-08-19T06:03:04;11.55;;;10.35;;
12577;SDS011;6354;51.026;8.968;2022-08-19T06:05:38;14.20;;;11.27;;
12577;SDS011;6354;51.026;8.968;2022-08-19T06:08:17;13.90;;;11.05;;
12577;SDS011;6354;51.026;8.968;2022-08-19T06:13:46;10.65;;;9.60;;
12577;SDS011;6354;51.026;8.968;2022-08-19T06:16:25;10.95;;;8.52;;
12577;SDS011;6354;51.026;8.968;2022-08-19T06:18:54;11.80;;;8.57;;
12577;SDS011;6354;51.026;8.968;2022-08-19T06:21:25;12.68;;;8.48;;
12577;SDS011;6354;51.026;8.968;2022-08-19T06:23:55;8.77;;;7.40;;
12577;SDS011;6354;51.026;8.968;2022-08-19T06:26:23;8.07;;;6.60;;
12577;SDS011;6354;51.026;8.968;2022-08-19T06:28:54;8.85;;;6.38;;
12577;SDS011;6354;51.026;8.968;2022-08-19T06:31:23;7.57;;;6.07;;
12577;SDS011;6354;51.026;8.968;2022-08-19T06:33:52;6.15;;;5.55;;
12577;SDS011;6354;51.026;8.968;2022-08-19T06:36:21;7.75;;;5.97;;
12577;SDS011;6354;51.026;8.968;2022-08-19T06:38:53;5.65;;;5.03;;
12577;SDS011;6354;51.026;8.968;2022-08-19T06:41:23;10.68;;;5.60;;
12577;SDS011;6354;51.026;8.968;2022-08-19T06:43:51;7.50;;;5.07;;
12577;SDS011;6354;51.026;8.968;2022-08-19T06:46:22;5.70;;;5.20;;
12577;SDS011;6354;51.026;8.968;2022-08-19T06:48:50;5.95;;;5.35;;
12577;SDS011;6354;51.026;8.968;2022-08-19T06:51:20;7.60;;;5.05;;
12577;SDS011;6354;51.026;8.968;2022-08-19T06:53:50;6.28;;;5.00;;
12577;SDS011;6354;51.026;8.968;2022-08-19T06:56:21;6.40;;;5.10;;
12577;SDS011;6354;51.026;8.968;2022-08-19T06:58:58;5.65;;;4.90;;
12577;SDS011;6354;51.026;8.968;2022-08-19T07:01:26;7.75;;;5.60;;
12577;SDS011;6354;51.026;8.968;2022-08-19T07:03:54;6.05;;;4.90;;
12577;SDS011;6354;51.026;8.968;2022-08-19T07:06:23;5.63;;;5.13;;
12577;SDS011;6354;51.026;8.968;2022-08-19T07:09:10;8.40;;;5.20;;
12577;SDS011;6354;51.026;8.968;2022-08-19T07:11:43;6.00;;;4.80;;
12577;SDS011;6354;51.026;8.968;2022-08-19T07:14:13;5.38;;;4.85;;
12577;SDS011;6354;51.026;8.968;2022-08-19T07:16:45;5.93;;;4.25;;
12577;SDS011;6354;51.026;8.968;2022-08-19T07:19:14;4.72;;;4.20;;
12577;SDS011;6354;51.026;8.968;2022-08-19T07:21:44;5.97;;;3.90;;
12577;SDS011;6354;51.026;8.968;2022-08-19T07:24:14;5.30;;;4.22;;
12577;SDS011;6354;51.026;8.968;2022-08-19T07:26:43;4.93;;;4.25;;
12577;SDS011;6354;51.026;8.968;2022-08-19T07:29:18;5.05;;;4.20;;
12577;SDS011;6354;51.026;8.968;2022-08-19T07:31:51;4.60;;;3.72;;
12577;SDS011;6354;51.026;8.968;2022-08-19T07:34:23;4.05;;;3.65;;
12577;SDS011;6354;51.026;8.968;2022-08-19T07:36:51;4.82;;;4.15;;
12577;SDS011;6354;51.026;8.968;2022-08-19T07:39:21;4.15;;;3.75;;
12577;SDS011;6354;51.026;8.968;2022-08-19T07:41:52;4.95;;;4.07;;
12577;SDS011;6354;51.026;8.968;2022-08-19T07:44:22;4.40;;;3.45;;
12577;SDS011;6354;51.026;8.968;2022-08-19T07:46:51;4.45;;;3.72;;
12577;SDS011;6354;51.026;8.968;2022-08-19T07:49:21;7.05;;;4.15;;
12577;SDS011;6354;51.026;8.968;2022-08-19T07:51:51;5.28;;;4.00;;
12577;SDS011;6354;51.026;8.968;2022-08-19T07:54:22;3.72;;;3.30;;
12577;SDS011;6354;51.026;8.968;2022-08-19T07:56:53;4.57;;;4.05;;
12577;SDS011;6354;51.026;8.968;2022-08-19T07:59:23;4.50;;;4.10;;
12577;SDS011;6354;51.026;8.968;2022-08-19T08:01:51;3.65;;;3.33;;
12577;SDS011;6354;51.026;8.968;2022-08-19T08:04:20;3.83;;;3.45;;
12577;SDS011;6354;51.026;8.968;2022-08-19T08:07:05;3.65;;;3.25;;
12577;SDS011;6354;51.026;8.968;2022-08-19T08:09:57;4.63;;;2.92;;
12577;SDS011;6354;51.026;8.968;2022-08-19T08:12:29;3.80;;;3.22;;
12577;SDS011;6354;51.026;8.968;2022-08-19T08:15:05;5.32;;;3.08;;
12577;SDS011;6354;51.026;8.968;2022-08-19T08:17:38;4.43;;;3.35;;
12577;SDS011;6354;51.026;8.968;2022-08-19T08:20:17;4.68;;;2.97;;
12577;SDS011;6354;51.026;8.968;2022-08-19T08:22:46;4.95;;;3.20;;
12577;SDS011;6354;51.026;8.968;2022-08-19T08:25:32;3.47;;;2.90;;
12577;SDS011;6354;51.026;8.968;2022-08-19T08:28:01;5.88;;;3.42;;
12577;SDS011;6354;51.026;8.968;2022-08-19T08:30:32;6.45;;;3.10;;
12577;SDS011;6354;51.026;8.968;2022-08-19T08:33:02;3.58;;;2.72;;
12577;SDS011;6354;51.026;8.968;2022-08-19T08:35:31;3.55;;;3.00;;
12577;SDS011;6354;51.026;8.968;2022-08-19T08:37:59;4.10;;;2.92;;
12577;SDS011;6354;51.026;8.968;2022-08-19T08:40:31;4.20;;;3.20;;
12577;SDS011;6354;51.026;8.968;2022-08-19T08:43:07;3.60;;;3.30;;
12577;SDS011;6354;51.026;8.968;2022-08-19T08:45:42;3.67;;;2.72;;
12577;SDS011;6354;51.026;8.968;2022-08-19T08:48:20;4.45;;;3.10;;
12577;SDS011;6354;51.026;8.968;2022-08-19T08:50:51;3.20;;;2.83;;
12577;SDS011;6354;51.026;8.968;2022-08-19T08:53:22;5.70;;;3.67;;
12577;SDS011;6354;51.026;8.968;2022-08-19T08:55:57;10.55;;;3.85;;
12577;SDS011;6354;51.026;8.968;2022-08-19T08:58:27;6.00;;;3.50;;
12577;SDS011;6354;51.026;8.968;2022-08-19T09:01:10;4.15;;;3.00;;
12577;SDS011;6354;51.026;8.968;2022-08-19T09:03:40;7.95;;;3.45;;
12577;SDS011;6354;51.026;8.968;2022-08-19T09:06:12;4.18;;;3.20;;
12577;SDS011;6354;51.026;8.968;2022-08-19T09:08:48;5.03;;;3.40;;
12577;SDS011;6354;51.026;8.968;2022-08-19T09:11:23;3.63;;;3.25;;
12577;SDS011;6354;51.026;8.968;2022-08-19T09:14:11;3.45;;;3.15;;
12577;SDS011;6354;51.026;8.968;2022-08-19T09:17:16;5.38;;;3.50;;
12577;SDS011;6354;51.026;8.968;2022-08-19T09:19:49;3.22;;;2.90;;
12577;SDS011;6354;51.026;8.968;2022-08-19T09:22:19;3.60;;;3.30;;
12577;SDS011;6354;51.026;8.968;2022-08-19T09:24:53;3.45;;;3.17;;
12577;SDS011;6354;51.026;8.968;2022-08-19T09:27:22;3.95;;;3.58;;
12577;SDS011;6354;51.026;8.968;2022-08-19T09:30:10;4.32;;;3.40;;
12577;SDS011;6354;51.026;8.968;2022-08-19T09:32:42;4.13;;;3.30;;
12577;SDS011;6354;51.026;8.968;2022-08-19T09:35:12;3.78;;;3.42;;
12577;SDS011;6354;51.026;8.968;2022-08-19T09:37:41;5.15;;;3.47;;
12577;SDS011;6354;51.026;8.968;2022-08-19T09:40:10;3.65;;;3.25;;
12577;SDS011;6354;51.026;8.968;2022-08-19T09:42:40;5.38;;;4.15;;
12577;SDS011;6354;51.026;8.968;2022-08-19T09:45:17;4.28;;;3.80;;
12577;SDS011;6354;51.026;8.968;2022-08-19T09:47:49;6.05;;;4.20;;
12577;SDS011;6354;51.026;8.968;2022-08-19T09:50:20;4.20;;;3.80;;
12577;SDS011;6354;51.026;8.968;2022-08-19T09:52:49;3.58;;;3.28;;
12577;SDS011;6354;51.026;8.968;2022-08-19T09:55:23;4.22;;;3.83;;
12577;SDS011;6354;51.026;8.968;2022-08-19T09:57:56;5.90;;;3.30;;
12577;SDS011;6354;51.026;8.968;2022-08-19T10:00:24;4.32;;;3.90;;
12577;SDS011;6354;51.026;8.968;2022-08-19T10:02:54;5.22;;;4.22;;
12577;SDS011;6354;51.026;8.968;2022-08-19T10:05:22;5.95;;;4.57;;
12577;SDS011;6354;51.026;8.968;2022-08-19T10:08:08;4.32;;;3.92;;
12577;SDS011;6354;51.026;8.968;2022-08-19T10:10:39;5.78;;;3.92;;
12577;SDS011;6354;51.026;8.968;2022-08-19T10:13:12;3.85;;;3.50;;
12577;SDS011;6354;51.026;8.968;2022-08-19T10:15:41;6.35;;;3.72;;
12577;SDS011;6354;51.026;8.968;2022-08-19T10:18:16;5.55;;;3.83;;
12577;SDS011;6354;51.026;8.968;2022-08-19T10:20:45;4.13;;;3.65;;
12577;SDS011;6354;51.026;8.968;2022-08-19T10:23:17;4.55;;;4.00;;
12577;SDS011;6354;51.026;8.968;2022-08-19T10:25:46;4.47;;;4.00;;
12577;SDS011;6354;51.026;8.968;2022-08-19T10:28:15;4.85;;;3.80;;
12577;SDS011;6354;51.026;8.968;2022-08-19T10:30:44;4.72;;;3.70;;
12577;SDS011;6354;51.026;8.968;2022-08-19T10:33:13;5.50;;;3.55;;
12577;SDS011;6354;51.026;8.968;2022-08-19T10:36:03;3.67;;;2.97;;
12577;SDS011;6354;51.026;8.968;2022-08-19T10:38:33;3.63;;;3.30;;
12577;SDS011;6354;51.026;8.968;2022-08-19T10:41:08;4.07;;;2.95;;
12577;SDS011;6354;51.026;8.968;2022-08-19T10:43:38;5.13;;;3.45;;
12577;SDS011;6354;51.026;8.968;2022-08-19T10:46:07;4.57;;;3.20;;
12577;SDS011;6354;51.026;8.968;2022-08-19T10:48:42;3.30;;;3.00;;
12577;SDS011;6354;51.026;8.968;2022-08-19T10:51:12;4.00;;;3.20;;
12577;SDS011;6354;51.026;8.968;2022-08-19T10:53:59;3.50;;;3.20;;
12577;SDS011;6354;51.026;8.968;2022-08-19T10:56:32;3.40;;;2.97;;
12577;SDS011;6354;51.026;8.968;2022-08-19T10:59:18;3.80;;;3.10;;
12577;SDS011;6354;51.026;8.968;2022-08-19T11:01:52;4.22;;;3.30;;
12577;SDS011;6354;51.026;8.968;2022-08-19T11:04:22;3.28;;;2.95;;
12577;SDS011;6354;51.026;8.968;2022-08-19T11:06:56;4.85;;;3.45;;
12577;SDS011;6354;51.026;8.968;2022-08-19T11:09:24;3.83;;;3.35;;
12577;SDS011;6354;51.026;8.968;2022-08-19T11:11:59;5.10;;;3.22;;
12577;SDS011;6354;51.026;8.968;2022-08-19T11:14:30;3.72;;;3.38;;
12577;SDS011;6354;51.026;8.968;2022-08-19T11:17:00;3.45;;;3.15;;
12577;SDS011;6354;51.026;8.968;2022-08-19T11:19:28;5.28;;;3.13;;
12577;SDS011;6354;51.026;8.968;2022-08-19T11:21:59;4.82;;;3.40;;
12577;SDS011;6354;51.026;8.968;2022-08-19T11:24:29;3.95;;;3.60;;
12577;SDS011;6354;51.026;8.968;2022-08-19T11:27:03;6.45;;;4.00;;
12577;SDS011;6354;51.026;8.968;2022-08-19T11:29:35;6.57;;;4.35;;
12577;SDS011;6354;51.026;8.968;2022-08-19T11:32:06;7.13;;;4.28;;
12577;SDS011;6354;51.026;8.968;2022-08-19T11:34:36;5.07;;;4.20;;
12577;SDS011;6354;51.026;8.968;2022-08-19T11:37:06;4.40;;;3.90;;
12577;SDS011;6354;51.026;8.968;2022-08-19T11:39:35;4.78;;;3.92;;
12577;SDS011;6354;51.026;8.968;2022-08-19T11:42:05;7.00;;;4.15;;
12577;SDS011;6354;51.026;8.968;2022-08-19T11:44:54;4.53;;;4.13;;
12577;SDS011;6354;51.026;8.968;2022-08-19T11:47:22;5.88;;;4.32;;
12577;SDS011;6354;51.026;8.968;2022-08-19T11:49:50;4.75;;;4.35;;
12577;SDS011;6354;51.026;8.968;2022-08-19T11:52:21;5.97;;;3.90;;
12577;SDS011;6354;51.026;8.968;2022-08-19T11:54:49;5.55;;;4.00;;
12577;SDS011;6354;51.026;8.968;2022-08-19T11:57:17;7.03;;;4.25;;
12577;SDS011;6354;51.026;8.968;2022-08-19T11:59:50;4.78;;;4.22;;
12577;SDS011;6354;51.026;8.968;2022-08-19T12:02:19;5.00;;;4.13;;
12577;SDS011;6354;51.026;8.968;2022-08-19T12:04:47;5.20;;;4.25;;
12577;SDS011;6354;51.026;8.968;2022-08-19T12:07:16;6.88;;;4.32;;
12577;SDS011;6354;51.026;8.968;2022-08-19T12:09:45;4.22;;;3.80;;
12577;SDS011;6354;51.026;8.968;2022-08-19T12:12:14;4.28;;;3.90;;
12577;SDS011;6354;51.026;8.968;2022-08-19T12:14:42;5.32;;;4.05;;
12577;SDS011;6354;51.026;8.968;2022-08-19T12:17:11;4.38;;;3.83;;
12577;SDS011;6354;51.026;8.968;2022-08-19T12:19:39;4.72;;;4.32;;
12577;SDS011;6354;51.026;8.968;2022-08-19T12:22:07;5.90;;;4.28;;
12577;SDS011;6354;51.026;8.968;2022-08-19T12:24:35;4.82;;;4.40;;
12577;SDS011;6354;51.026;8.968;2022-08-19T12:27:05;4.80;;;4.30;;
12577;SDS011;6354;51.026;8.968;2022-08-19T12:29:38;4.55;;;4.15;;
12577;SDS011;6354;51.026;8.968;2022-08-19T12:32:06;5.10;;;4.60;;
12577;SDS011;6354;51.026;8.968;2022-08-19T12:34:37;6.32;;;4.47;;
12577;SDS011;6354;51.026;8.968;2022-08-19T12:37:06;5.63;;;4.95;;
12577;SDS011;6354;51.026;8.968;2022-08-19T12:39:35;5.28;;;4.63;;
12577;SDS011;6354;51.026;8.968;2022-08-19T12:42:07;4.40;;;4.00;;
12577;SDS011;6354;51.026;8.968;2022-08-19T12:44:36;5.50;;;4.50;;
12577;SDS011;6354;51.026;8.968;2022-08-19T12:47:08;4.93;;;4.45;;
12577;SDS011;6354;51.026;8.968;2022-08-19T12:49:37;5.38;;;4.43;;
12577;SDS011;6354;51.026;8.968;2022-08-19T12:52:20;4.75;;;4.35;;
12577;SDS011;6354;51.026;8.968;2022-08-19T12:54:49;6.20;;;4.90;;
12577;SDS011;6354;51.026;8.968;2022-08-19T12:57:21;7.38;;;4.95;;
12577;SDS011;6354;51.026;8.968;2022-08-19T12:59:57;5.85;;;5.35;;
12577;SDS011;6354;51.026;8.968;2022-08-19T13:02:25;5.70;;;4.82;;
12577;SDS011;6354;51.026;8.968;2022-08-19T13:04:53;6.63;;;4.65;;
12577;SDS011;6354;51.026;8.968;2022-08-19T13:07:23;5.00;;;4.50;;
12577;SDS011;6354;51.026;8.968;2022-08-19T13:09:51;5.78;;;4.97;;
12577;SDS011;6354;51.026;8.968;2022-08-19T13:12:19;4.80;;;4.30;;
12577;SDS011;6354;51.026;8.968;2022-08-19T13:14:52;6.72;;;4.55;;
12577;SDS011;6354;51.026;8.968;2022-08-19T13:17:20;6.30;;;4.68;;
12577;SDS011;6354;51.026;8.968;2022-08-19T13:19:49;5.35;;;4.68;;
12577;SDS011;6354;51.026;8.968;2022-08-19T13:22:17;5.85;;;4.47;;
12577;SDS011;6354;51.026;8.968;2022-08-19T13:24:45;12.63;;;4.97;;
12577;SDS011;6354;51.026;8.968;2022-08-19T13:27:14;7.05;;;5.07;;
12577;SDS011;6354;51.026;8.968;2022-08-19T13:29:44;5.00;;;4.55;;
12577;SDS011;6354;51.026;8.968;2022-08-19T13:32:29;16.05;;;5.20;;
12577;SDS011;6354;51.026;8.968;2022-08-19T13:35:15;6.00;;;5.40;;
12577;SDS011;6354;51.026;8.968;2022-08-19T13:37:44;5.30;;;4.80;;
12577;SDS011;6354;51.026;8.968;2022-08-19T13:40:14;5.25;;;4.80;;
12577;SDS011;6354;51.026;8.968;2022-08-19T13:42:45;6.68;;;5.00;;
12577;SDS011;6354;51.026;8.968;2022-08-19T13:45:16;5.72;;;5.20;;
12577;SDS011;6354;51.026;8.968;2022-08-19T13:47:46;9.00;;;5.10;;
12577;SDS011;6354;51.026;8.968;2022-08-19T13:50:15;6.38;;;5.82;;
12577;SDS011;6354;51.026;8.968;2022-08-19T13:52:45;5.70;;;5.30;;
12577;SDS011;6354;51.026;8.968;2022-08-19T13:55:14;6.45;;;5.82;;
12577;SDS011;6354;51.026;8.968;2022-08-19T13:57:50;5.63;;;4.90;;
12577;SDS011;6354;51.026;8.968;2022-08-19T14:00:21;6.03;;;5.43;;
12577;SDS011;6354;51.026;8.968;2022-08-19T14:02:56;5.88;;;5.38;;
12577;SDS011;6354;51.026;8.968;2022-08-19T14:05:25;6.47;;;5.20;;
12577;SDS011;6354;51.026;8.968;2022-08-19T14:07:54;6.10;;;5.43;;
12577;SDS011;6354;51.026;8.968;2022-08-19T14:10:23;5.53;;;5.00;;
12577;SDS011;6354;51.026;8.968;2022-08-19T14:12:52;5.45;;;4.43;;
12577;SDS011;6354;51.026;8.968;2022-08-19T14:15:23;5.63;;;5.00;;
12577;SDS011;6354;51.026;8.968;2022-08-19T14:17:51;6.35;;;5.40;;
12577;SDS011;6354;51.026;8.968;2022-08-19T14:20:21;6.25;;;5.65;;
12577;SDS011;6354;51.026;8.968;2022-08-19T14:22:51;8.20;;;6.07;;
12577;SDS011;6354;51.026;8.968;2022-08-19T14:25:21;6.40;;;5.80;;
12577;SDS011;6354;51.026;8.968;2022-08-19T14:27:51;5.93;;;5.40;;
12577;SDS011;6354;51.026;8.968;2022-08-19T14:30:21;6.18;;;5.68;;
12577;SDS011;6354;51.026;8.968;2022-08-19T14:32:54;6.63;;;5.25;;
12577;SDS011;6354;51.026;8.968;2022-08-19T14:35:25;7.43;;;5.75;;
12577;SDS011;6354;51.026;8.968;2022-08-19T14:37:54;6.03;;;5.47;;
12577;SDS011;6354;51.026;8.968;2022-08-19T14:40:25;6.32;;;5.72;;
12577;SDS011;6354;51.026;8.968;2022-08-19T14:42:55;6.22;;;5.63;;
12577;SDS011;6354;51.026;8.968;2022-08-19T14:45:27;7.32;;;5.57;;
12577;SDS011;6354;51.026;8.968;2022-08-19T14:47:57;5.65;;;5.15;;
12577;SDS011;6354;51.026;8.968;2022-08-19T14:50:27;8.43;;;7.32;;
12577;SDS011;6354;51.026;8.968;2022-08-19T14:52:58;7.78;;;6.40;;
12577;SDS011;6354;51.026;8.968;2022-08-19T14:55:34;6.35;;;5.75;;
12577;SDS011;6354;51.026;8.968;2022-08-19T14:58:02;6.70;;;6.10;;
12577;SDS011;6354;51.026;8.968;2022-08-19T15:00:35;7.30;;;6.60;;
12577;SDS011;6354;51.026;8.968;2022-08-19T15:03:03;5.72;;;5.22;;
12577;SDS011;6354;51.026;8.968;2022-08-19T15:05:31;5.75;;;5.25;;
12577;SDS011;6354;51.026;8.968;2022-08-19T15:08:02;5.63;;;5.03;;
12577;SDS011;6354;51.026;8.968;2022-08-19T15:10:30;6.03;;;5.20;;
12577;SDS011;6354;51.026;8.968;2022-08-19T15:12:58;5.13;;;4.72;;
12577;SDS011;6354;51.026;8.968;2022-08-19T15:15:26;5.05;;;4.63;;
12577;SDS011;6354;51.026;8.968;2022-08-19T15:17:56;4.93;;;4.53;;